Time;durP1;ratioP1;P1;durP2;ratioP2;P2;SDS_P1;SDS_P2;PMS_P1;PMS_P2;Temp;Humidity;BMP_temperature;BMP_pressure;BME280_temperature;BME280_humidity;BME280_pressure;Samples;Min_cycle;Max_cycle;Signal;HPM_P1;HPM_P2
2023/11/19 00:00:14;;;;;;;11.80;2.20;;;;;;;2.05;54.64;101097.55;105224;1260;63626;-55
2023/11/19 00:02:42;;;;;;;4.20;1.50;;;;;;;2.03;54.75;101100.06;105763;1255;61871;-55
2023/11/19 00:05:13;;;;;;;8.30;2.10;;;;;;;2.00;54.64;101099.45;105172;1257;62514;-54
2023/11/19 00:07:41;;;;;;;5.70;1.70;;;;;;;1.98;54.47;101096.07;106607;1254;60421;-55
2023/11/19 00:10:18;;;;;;;7.80;2.80;;;;;;;1.92;54.29;101096.95;105796;1254;60428;-55
2023/11/19 00:12:47;;;;;;;6.10;2.40;;;;;;;1.88;54.48;101092.95;106223;1254;64934;-57
2023/11/19 00:15:18;;;;;;;5.50;2.20;;;;;;;1.85;54.72;101094.08;106337;1260;60462;-55
2023/11/19 00:17:47;;;;;;;5.70;2.50;;;;;;;1.83;55.09;101095.67;105564;1260;63728;-56
2023/11/19 00:20:18;;;;;;;8.00;2.30;;;;;;;1.82;54.54;101094.67;105603;1255;60670;-56
2023/11/19 00:22:50;;;;;;;6.50;2.00;;;;;;;1.80;54.63;101094.41;106792;1253;60472;-56
2023/11/19 00:25:21;;;;;;;9.70;2.60;;;;;;;1.85;54.82;101087.16;105732;1254;63714;-56
2023/11/19 00:27:51;;;;;;;5.90;1.80;;;;;;;1.93;54.94;101087.26;105481;1260;61595;-53
2023/11/19 00:30:21;;;;;;;6.90;2.40;;;;;;;1.96;54.71;101089.39;106676;1259;63951;-54
2023/11/19 00:32:49;;;;;;;7.00;2.30;;;;;;;1.99;54.83;101094.46;105737;1253;60532;-57
2023/11/19 00:35:17;;;;;;;6.80;1.90;;;;;;;1.98;54.58;101090.69;105400;1261;60366;-55
2023/11/19 00:37:45;;;;;;;7.20;2.90;;;;;;;1.96;54.23;101090.42;105853;1254;64929;-54
2023/11/19 00:40:15;;;;;;;6.30;2.00;;;;;;;1.94;54.53;101093.09;106166;1260;60444;-56
2023/11/19 00:42:44;;;;;;;7.80;2.20;;;;;;;1.92;54.68;101093.17;105619;1260;62519;-56
2023/11/19 00:45:13;;;;;;;4.70;1.80;;;;;;;1.89;54.75;101089.80;105955;1254;60501;-55
2023/11/19 00:47:41;;;;;;;5.40;1.90;;;;;;;1.86;54.88;101090.73;106270;1254;60325;-56
2023/11/19 00:50:09;;;;;;;5.90;1.90;;;;;;;1.84;54.93;101090.98;106411;1259;63744;-56
2023/11/19 00:52:37;;;;;;;6.30;1.90;;;;;;;1.82;55.11;101087.73;105980;1259;60368;-55
2023/11/19 00:55:06;;;;;;;8.10;2.80;;;;;;;1.87;55.02;101086.02;106391;1260;62509;-56
2023/11/19 00:57:35;;;;;;;5.90;1.80;;;;;;;1.96;54.57;101091.98;105789;1254;60408;-55
2023/11/19 01:00:26;;;;;;;7.00;3.10;;;;;;;1.98;54.76;101089.67;105621;1254;60481;-55
2023/11/19 01:02:54;;;;;;;5.40;2.00;;;;;;;1.99;55.32;101086.86;107338;1258;64832;-57
2023/11/19 01:05:22;;;;;;;5.50;1.80;;;;;;;2.01;54.92;101080.03;105390;1254;61087;-56
2023/11/19 01:07:52;;;;;;;7.90;2.70;;;;;;;1.98;54.62;101076.86;105420;1259;62432;-55
2023/11/19 01:10:20;;;;;;;4.60;1.90;;;;;;;1.94;54.36;101074.23;107132;1256;60447;-55
2023/11/19 01:12:48;;;;;;;5.70;2.40;;;;;;;1.88;54.45;101078.72;105833;1259;60472;-54
2023/11/19 01:15:18;;;;;;;6.10;1.80;;;;;;;1.83;54.80;101077.16;106236;1254;63611;-54
2023/11/19 01:17:46;;;;;;;7.80;2.20;;;;;;;1.79;54.96;101074.55;105557;1261;60517;-53
2023/11/19 01:20:17;;;;;;;5.30;1.90;;;;;;;1.76;55.39;101066.34;105763;1259;62442;-54
2023/11/19 01:22:44;;;;;;;4.70;1.90;;;;;;;1.78;55.05;101056.92;106318;1253;60553;-54
2023/11/19 01:25:12;;;;;;;4.20;1.70;;;;;;;1.83;55.05;101062.45;105227;1257;60498;-54
2023/11/19 01:27:40;;;;;;;5.10;2.00;;;;;;;1.84;55.10;101058.79;105784;1254;63637;-58
2023/11/19 01:30:14;;;;;;;5.30;2.00;;;;;;;1.85;54.92;101057.19;105894;1254;62167;-54
2023/11/19 01:32:42;;;;;;;5.30;2.00;;;;;;;1.86;55.11;101055.27;105981;1259;62435;-55
2023/11/19 01:35:10;;;;;;;6.20;2.40;;;;;;;1.83;54.87;101046.36;105302;1260;60555;-55
2023/11/19 01:37:38;;;;;;;5.50;2.10;;;;;;;1.81;54.84;101048.52;105969;1254;59224;-55
2023/11/19 01:40:08;;;;;;;7.20;2.70;;;;;;;1.80;55.29;101044.42;105271;1261;65071;-54
2023/11/19 01:42:39;;;;;;;5.70;2.10;;;;;;;1.77;55.63;101042.25;106018;1260;60425;-55
2023/11/19 01:45:08;;;;;;;7.50;2.40;;;;;;;1.75;55.53;101037.33;106085;1258;62472;-54
2023/11/19 01:47:36;;;;;;;6.10;2.00;;;;;;;1.72;55.62;101040.69;105812;1254;60358;-55
2023/11/19 01:50:06;;;;;;;5.80;1.70;;;;;;;1.77;55.39;101041.39;106599;1254;60190;-55
2023/11/19 01:52:38;;;;;;;4.90;2.10;;;;;;;1.85;55.01;101042.34;105967;1260;64951;-54
2023/11/19 01:55:08;;;;;;;6.80;1.90;;;;;;;1.88;55.14;101047.27;105892;1259;60535;-55
2023/11/19 01:57:37;;;;;;;7.20;2.80;;;;;;;1.88;55.32;101044.67;105975;1255;64235;-55
2023/11/19 02:00:06;;;;;;;5.40;2.20;;;;;;;1.86;55.30;101041.08;105881;1257;60461;-54
2023/11/19 02:02:40;;;;;;;4.70;2.00;;;;;;;1.84;55.03;101038.75;105327;1254;60536;-54
2023/11/19 02:05:11;;;;;;;4.30;1.40;;;;;;;1.82;55.25;101032.39;105854;1254;63608;-54
2023/11/19 02:07:38;;;;;;;5.20;1.40;;;;;;;1.81;55.37;101031.21;106173;1254;61720;-55
2023/11/19 02:10:11;;;;;;;6.40;2.40;;;;;;;1.76;54.86;101028.80;105980;1254;63734;-54
2023/11/19 02:12:45;;;;;;;7.60;2.80;;;;;;;1.69;54.99;101026.94;105981;1254;60470;-54
2023/11/19 02:15:13;;;;;;;7.70;2.80;;;;;;;1.64;55.42;101030.56;106338;1254;60549;-56
2023/11/19 02:17:41;;;;;;;4.40;1.70;;;;;;;1.68;55.28;101033.73;106100;1257;65028;-53
2023/11/19 02:20:11;;;;;;;6.30;1.80;;;;;;;1.73;55.33;101036.86;105111;1260;60414;-53
2023/11/19 02:22:40;;;;;;;6.00;2.00;;;;;;;1.74;55.43;101040.48;106143;1259;62519;-55
2023/11/19 02:25:25;;;;;;;5.50;2.20;;;;;;;1.76;55.49;101039.54;105083;1260;60961;-56
2023/11/19 02:27:56;;;;;;;6.50;2.50;;;;;;;1.75;55.15;101036.61;105489;1253;60325;-55
2023/11/19 02:30:28;;;;;;;6.20;2.40;;;;;;;1.71;54.89;101042.27;105361;1259;67442;-55
2023/11/19 02:32:57;;;;;;;9.30;2.90;;;;;;;1.64;55.02;101044.91;106070;1260;60399;-55
2023/11/19 02:35:30;;;;;;;6.70;2.30;;;;;;;1.59;55.02;101047.66;105910;1260;62437;-55
2023/11/19 02:38:01;;;;;;;7.80;3.20;;;;;;;1.55;55.21;101042.45;105292;1255;60475;-54
2023/11/19 02:40:29;;;;;;;5.30;2.00;;;;;;;1.52;55.48;101039.08;105306;1254;60491;-53
2023/11/19 02:42:57;;;;;;;7.10;2.40;;;;;;;1.51;55.72;101039.11;105525;1255;65395;-54
2023/11/19 02:45:26;;;;;;;8.10;3.00;;;;;;;1.55;55.70;101038.45;106398;1254;61687;-55
2023/11/19 02:47:55;;;;;;;5.30;2.00;;;;;;;1.67;55.58;101033.77;105348;1255;63751;-54
2023/11/19 02:50:25;;;;;;;6.80;2.10;;;;;;;1.75;55.46;101025.72;105168;1259;60546;-55
2023/11/19 02:52:56;;;;;;;8.20;2.80;;;;;;;1.75;54.99;101021.38;105328;1254;60552;-55
2023/11/19 02:55:24;;;;;;;6.30;1.80;;;;;;;1.71;54.89;101018.39;106552;1254;65083;-57
2023/11/19 02:57:53;;;;;;;4.30;2.00;;;;;;;1.64;55.11;101014.14;105420;1257;68777;-55
2023/11/19 03:00:32;;;;;;;7.10;2.00;;;;;;;1.59;55.21;101013.60;105471;1260;62580;-55
2023/11/19 03:02:59;;;;;;;6.80;1.80;;;;;;;1.56;55.40;101012.67;105889;1254;60379;-56
2023/11/19 03:05:30;;;;;;;19.40;3.40;;;;;;;1.53;55.76;101004.98;105559;1257;60430;-56
2023/11/19 03:07:58;;;;;;;6.80;2.10;;;;;;;1.50;55.71;101007.84;105264;1254;63715;-57
2023/11/19 03:10:25;;;;;;;6.50;1.90;;;;;;;1.50;56.13;100999.54;105331;1260;69130;-55
2023/11/19 03:12:55;;;;;;;6.90;2.30;;;;;;;1.52;56.34;100989.98;105291;1254;62470;-55
2023/11/19 03:15:23;;;;;;;5.50;1.80;;;;;;;1.61;55.91;100983.10;105390;1256;60642;-55
2023/11/19 03:17:50;;;;;;;5.60;2.40;;;;;;;1.65;55.42;100982.96;105288;1253;60513;-55
2023/11/19 03:20:18;;;;;;;6.70;2.20;;;;;;;1.62;55.37;100982.20;106031;1257;65336;-55
2023/11/19 03:22:46;;;;;;;6.20;2.20;;;;;;;1.58;55.37;100985.81;105665;1256;60498;-55
2023/11/19 03:25:14;;;;;;;4.60;1.30;;;;;;;1.54;55.84;100987.15;105697;1256;63810;-55
2023/11/19 03:27:42;;;;;;;6.20;1.60;;;;;;;1.53;56.16;100989.60;105337;1259;60464;-54
2023/11/19 03:30:10;;;;;;;5.00;1.70;;;;;;;1.54;56.35;100989.56;105275;1260;60302;-56
2023/11/19 03:32:38;;;;;;;5.70;2.10;;;;;;;1.54;56.12;100987.98;105862;1257;63667;-55
2023/11/19 03:35:08;;;;;;;4.90;1.50;;;;;;;1.53;55.77;100989.61;105942;1256;60502;-53
2023/11/19 03:37:36;;;;;;;6.60;2.50;;;;;;;1.50;55.93;100989.35;106747;1254;62652;-54
2023/11/19 03:40:05;;;;;;;8.60;2.50;;;;;;;1.47;55.71;100979.08;105972;1254;60466;-51
2023/11/19 03:42:33;;;;;;;5.80;1.90;;;;;;;1.53;55.63;100979.75;105907;1253;60937;-53
2023/11/19 03:45:00;;;;;;;4.60;2.00;;;;;;;1.56;55.56;100979.98;105937;1255;63851;-54
2023/11/19 03:47:28;;;;;;;5.40;2.90;;;;;;;1.55;55.80;100980.72;105292;1254;61894;-53
2023/11/19 03:49:56;;;;;;;6.20;2.20;;;;;;;1.57;55.81;100979.10;105297;1254;63790;-53
2023/11/19 03:52:26;;;;;;;7.50;2.40;;;;;;;1.55;55.74;100974.14;106953;1253;60463;-53
2023/11/19 03:54:55;;;;;;;5.70;2.10;;;;;;;1.53;56.01;100980.08;105266;1254;60564;-54
2023/11/19 03:57:23;;;;;;;6.90;2.40;;;;;;;1.52;55.73;100980.11;105591;1254;65168;-55
2023/11/19 03:59:50;;;;;;;5.70;2.10;;;;;;;1.52;55.71;100977.02;106635;1254;61367;-57
2023/11/19 04:02:18;;;;;;;5.80;2.10;;;;;;;1.49;55.73;100973.64;105592;1257;62430;-54
2023/11/19 04:04:46;;;;;;;5.40;1.80;;;;;;;1.47;55.74;100967.65;106005;1254;60521;-55
2023/11/19 04:07:14;;;;;;;7.70;3.00;;;;;;;1.53;56.00;100961.77;105576;1259;60444;-55
2023/11/19 04:09:42;;;;;;;5.40;2.10;;;;;;;1.62;56.04;100953.67;105258;1254;63691;-56
2023/11/19 04:12:10;;;;;;;7.30;2.50;;;;;;;1.65;55.72;100943.90;105202;1254;61230;-53
2023/11/19 04:14:38;;;;;;;5.40;1.60;;;;;;;1.68;55.71;100941.38;108234;1254;64191;-55
2023/11/19 04:17:05;;;;;;;5.30;2.10;;;;;;;1.68;55.70;100935.50;105931;1253;60533;-55
2023/11/19 04:19:33;;;;;;;5.70;1.80;;;;;;;1.64;55.48;100937.18;106112;1259;60309;-53
2023/11/19 04:22:01;;;;;;;6.90;2.20;;;;;;;1.59;55.49;100936.83;105225;1261;63799;-54
2023/11/19 04:24:30;;;;;;;6.50;2.80;;;;;;;1.55;55.54;100934.88;105385;1260;61610;-54
2023/11/19 04:26:58;;;;;;;6.90;2.00;;;;;;;1.49;55.44;100936.29;105839;1254;62459;-55
2023/11/19 04:29:26;;;;;;;6.10;2.30;;;;;;;1.45;55.54;100934.15;105180;1254;60527;-56
2023/11/19 04:31:53;;;;;;;5.70;2.10;;;;;;;1.42;55.95;100931.66;105411;1258;60437;-54
2023/11/19 04:34:21;;;;;;;4.80;1.30;;;;;;;1.39;55.96;100930.05;105550;1254;63732;-55
2023/11/19 04:36:49;;;;;;;5.20;2.20;;;;;;;1.45;55.96;100936.08;105332;1259;60565;-55
2023/11/19 04:39:18;;;;;;;6.90;2.00;;;;;;;1.53;55.86;100939.12;106134;1254;63919;-54
2023/11/19 04:41:49;;;;;;;6.60;2.20;;;;;;;1.54;55.70;100938.55;106609;1256;60797;-54
2023/11/19 04:44:17;;;;;;;6.40;2.10;;;;;;;1.54;55.94;100946.84;106499;1254;60441;-56
2023/11/19 04:46:45;;;;;;;5.50;2.00;;;;;;;1.55;55.86;100950.80;105974;1253;65025;-54
2023/11/19 04:49:14;;;;;;;5.30;1.80;;;;;;;1.54;55.41;100954.63;105639;1254;61396;-53
2023/11/19 04:51:42;;;;;;;6.40;2.10;;;;;;;1.54;55.48;100957.75;105777;1254;63752;-58
2023/11/19 04:54:09;;;;;;;5.10;1.80;;;;;;;1.52;54.99;100957.64;106079;1256;61595;-55
2023/11/19 04:56:37;;;;;;;6.80;2.10;;;;;;;1.49;55.06;100955.64;106114;1260;59335;-57
2023/11/19 04:59:05;;;;;;;5.70;2.00;;;;;;;1.47;54.69;100953.48;105174;1254;63912;-55
2023/11/19 05:01:33;;;;;;;6.40;1.80;;;;;;;1.42;54.53;100959.01;106004;1254;61402;-54
2023/11/19 05:04:01;;;;;;;6.20;2.60;;;;;;;1.40;54.62;100959.77;106404;1254;62505;-55
2023/11/19 05:06:30;;;;;;;4.70;1.60;;;;;;;1.38;54.82;100962.09;105360;1259;60539;-55
2023/11/19 05:09:04;;;;;;;4.50;1.80;;;;;;;1.39;55.09;100966.02;105333;1254;60523;-56
2023/11/19 05:11:34;;;;;;;4.10;1.40;;;;;;;1.50;54.79;100964.62;106174;1254;64885;-56
2023/11/19 05:14:05;;;;;;;5.90;1.80;;;;;;;1.59;54.07;100961.23;107616;1254;60469;-54
2023/11/19 05:16:33;;;;;;;4.10;1.60;;;;;;;1.61;54.20;100953.55;106758;1254;63701;-56
2023/11/19 05:19:00;;;;;;;5.00;1.80;;;;;;;1.64;54.01;100951.52;105227;1254;60599;-55
2023/11/19 05:21:29;;;;;;;8.10;2.00;;;;;;;1.64;54.00;100947.36;105161;1253;60370;-55
2023/11/19 05:23:56;;;;;;;5.70;1.90;;;;;;;1.63;54.13;100943.43;105140;1254;63861;-54
2023/11/19 05:26:24;;;;;;;4.50;2.10;;;;;;;1.60;53.82;100940.77;105150;1254;61350;-55
2023/11/19 05:28:52;;;;;;;5.50;1.80;;;;;;;1.57;53.43;100938.79;105267;1254;63728;-56
2023/11/19 05:31:19;;;;;;;5.50;1.90;;;;;;;1.55;53.19;100938.53;105111;1254;61592;-56
2023/11/19 05:33:50;;;;;;;4.40;1.50;;;;;;;1.51;53.15;100939.36;106347;1256;60479;-55
2023/11/19 05:36:17;;;;;;;4.60;1.50;;;;;;;1.47;52.89;100940.34;105364;1254;64112;-57
2023/11/19 05:38:45;;;;;;;4.40;1.20;;;;;;;1.47;52.70;100942.59;105239;1254;61834;-56
2023/11/19 05:41:13;;;;;;;3.60;1.20;;;;;;;1.43;52.66;100938.38;105514;1254;64599;-56
2023/11/19 05:43:40;;;;;;;4.70;1.70;;;;;;;1.38;52.57;100935.29;105606;1254;60535;-56
2023/11/19 05:46:08;;;;;;;6.60;2.20;;;;;;;1.34;52.74;100941.79;106678;1254;60424;-55
2023/11/19 05:48:39;;;;;;;5.10;1.60;;;;;;;1.32;52.82;100940.65;105807;1255;73806;-55
2023/11/19 05:51:06;;;;;;;4.80;1.80;;;;;;;1.29;52.10;100939.19;105352;1254;60501;-56
2023/11/19 05:53:34;;;;;;;6.90;1.70;;;;;;;1.28;52.19;100942.70;105190;1254;63715;-55
2023/11/19 05:56:03;;;;;;;5.30;1.50;;;;;;;1.24;52.62;100939.52;105222;1254;62019;-55
2023/11/19 05:58:32;;;;;;;4.70;1.60;;;;;;;1.23;52.41;100937.48;106856;1254;60529;-56
2023/11/19 06:01:03;;;;;;;4.20;1.40;;;;;;;1.23;52.50;100940.59;106945;1254;63815;-55
2023/11/19 06:03:31;;;;;;;4.40;1.20;;;;;;;1.25;52.98;100934.48;105873;1259;60750;-55
2023/11/19 06:05:59;;;;;;;4.90;1.70;;;;;;;1.28;53.02;100930.40;105094;1260;63841;-54
2023/11/19 06:08:27;;;;;;;4.10;1.10;;;;;;;1.31;52.20;100927.54;105386;1254;60446;-55
2023/11/19 06:10:54;;;;;;;3.20;1.20;;;;;;;1.31;51.57;100929.27;106630;1253;60826;-54
2023/11/19 06:13:22;;;;;;;4.50;1.50;;;;;;;1.31;51.71;100929.11;106186;1257;65062;-58
2023/11/19 06:15:51;;;;;;;4.30;1.60;;;;;;;1.31;51.40;100925.99;106776;1254;61294;-54
2023/11/19 06:18:23;;;;;;;4.20;1.10;;;;;;;1.30;51.13;100925.32;105718;1254;71865;-55
2023/11/19 06:20:51;;;;;;;4.70;1.40;;;;;;;1.29;51.18;100924.16;106176;1254;60424;-55
2023/11/19 06:23:19;;;;;;;4.70;1.40;;;;;;;1.28;51.26;100924.69;105286;1257;60373;-55
2023/11/19 06:25:47;;;;;;;5.00;1.50;;;;;;;1.28;51.27;100917.09;107014;1254;63731;-55
2023/11/19 06:28:15;;;;;;;5.00;1.20;;;;;;;1.29;51.45;100914.99;106066;1257;69150;-56
2023/11/19 06:30:43;;;;;;;3.80;1.00;;;;;;;1.31;51.88;100903.54;105710;1259;72675;-57
2023/11/19 06:33:15;;;;;;;3.80;1.40;;;;;;;1.33;51.45;100899.66;105236;1254;60447;-55
2023/11/19 06:35:43;;;;;;;4.40;1.30;;;;;;;1.32;51.54;100899.85;106620;1256;60398;-57
2023/11/19 06:38:11;;;;;;;5.20;1.60;;;;;;;1.32;51.44;100899.34;106602;1254;73088;-56
2023/11/19 06:40:41;;;;;;;4.40;1.40;;;;;;;1.31;51.37;100896.80;105099;1261;60425;-55
2023/11/19 06:43:08;;;;;;;4.20;1.20;;;;;;;1.31;50.97;100897.48;106210;1254;63766;-55
2023/11/19 06:45:36;;;;;;;5.60;1.80;;;;;;;1.31;50.66;100896.96;105073;1254;3580599;-55
2023/11/19 06:49:30;;;;;;;3.90;1.20;;;;;;;1.08;50.70;100897.67;102436;1290;600130;-56
2023/11/19 06:52:00;;;;;;;4.70;1.70;;;;;;;1.29;50.39;100887.15;104452;1264;60024;-56
2023/11/19 06:54:27;;;;;;;4.20;1.50;;;;;;;1.30;50.53;100887.98;105811;1267;59257;-56
2023/11/19 06:56:56;;;;;;;4.30;1.60;;;;;;;1.27;50.55;100883.94;105049;1263;71018;-54
2023/11/19 06:59:24;;;;;;;5.80;1.40;;;;;;;1.25;50.49;100882.64;106716;1264;69903;-55
2023/11/19 07:01:51;;;;;;;5.60;1.70;;;;;;;1.24;50.52;100885.45;102083;1269;3628029;-52
2023/11/19 07:04:19;;;;;;;4.40;1.20;;;;;;;1.26;50.64;100882.59;105029;1264;59423;-53
2023/11/19 07:06:48;;;;;;;3.50;1.00;;;;;;;1.29;50.86;100882.86;104620;1267;59354;-55
2023/11/19 07:09:15;;;;;;;5.30;1.40;;;;;;;1.33;50.82;100879.11;106029;1261;72206;-55
2023/11/19 07:11:45;;;;;;;4.90;1.80;;;;;;;1.34;50.76;100889.25;105116;1264;70507;-55
2023/11/19 07:14:13;;;;;;;4.30;1.90;;;;;;;1.37;50.54;100888.82;105049;1264;72679;-55
2023/11/19 07:16:40;;;;;;;4.20;1.10;;;;;;;1.38;50.29;100891.19;107966;1264;59861;-55
2023/11/19 07:19:08;;;;;;;4.20;1.30;;;;;;;1.39;50.16;100891.85;104803;1267;59781;-56
2023/11/19 07:21:39;;;;;;;4.40;1.50;;;;;;;1.39;50.04;100891.65;106168;1262;73011;-55
2023/11/19 07:24:07;;;;;;;3.90;1.20;;;;;;;1.41;49.98;100892.14;105289;1264;69084;-54
2023/11/19 07:26:35;;;;;;;4.90;1.20;;;;;;;1.41;50.24;100889.52;105409;1263;70591;-54
2023/11/19 07:29:03;;;;;;;4.90;1.60;;;;;;;1.45;50.46;100883.53;108598;1263;59919;-55
2023/11/19 07:31:30;;;;;;;3.50;1.30;;;;;;;1.50;50.23;100882.48;108577;1261;58062;-54
2023/11/19 07:33:58;;;;;;;5.30;1.50;;;;;;;1.54;49.74;100882.02;108542;1267;71855;-54
2023/11/19 07:36:25;;;;;;;4.10;1.40;;;;;;;1.57;49.76;100876.70;108575;1261;68939;-54
2023/11/19 07:38:53;;;;;;;4.50;1.50;;;;;;;1.63;49.98;100877.55;105765;1267;72679;-54
2023/11/19 07:41:21;;;;;;;4.80;1.70;;;;;;;1.65;49.27;100876.25;105290;1264;60835;-53
2023/11/19 07:43:49;;;;;;;6.20;1.60;;;;;;;1.66;49.54;100874.16;107115;1261;60043;-54
2023/11/19 07:46:19;;;;;;;5.90;1.90;;;;;;;1.68;49.52;100873.39;104651;1267;71841;-54
2023/11/19 07:48:47;;;;;;;4.40;1.60;;;;;;;1.69;49.37;100871.64;106171;1264;69166;-53
2023/11/19 07:51:15;;;;;;;4.50;1.70;;;;;;;1.70;49.79;100865.71;104590;1267;72732;-55
2023/11/19 07:53:44;;;;;;;6.80;2.10;;;;;;;1.72;49.65;100868.26;105956;1263;59691;-54
2023/11/19 07:56:12;;;;;;;5.30;1.50;;;;;;;1.73;49.32;100871.16;104722;1261;60537;-54
2023/11/19 07:58:39;;;;;;;6.10;1.30;;;;;;;1.73;48.83;100874.77;106077;1266;71875;-53
2023/11/19 08:01:07;;;;;;;5.50;2.00;;;;;;;1.72;48.80;100877.23;104547;1267;70007;-55
2023/11/19 08:03:35;;;;;;;5.50;2.10;;;;;;;1.69;48.86;100876.98;104782;1267;70781;-55
2023/11/19 08:06:03;;;;;;;5.00;1.70;;;;;;;1.68;49.11;100876.33;104767;1267;59769;-55
2023/11/19 08:08:33;;;;;;;5.20;1.60;;;;;;;1.70;49.04;100879.73;105595;1264;60442;-53
2023/11/19 08:11:01;;;;;;;4.90;1.70;;;;;;;1.72;49.07;100870.66;105442;1257;73502;-55
2023/11/19 08:13:28;;;;;;;5.50;1.80;;;;;;;1.73;49.34;100856.28;105600;1254;69840;-54
2023/11/19 08:15:58;;;;;;;3.90;1.10;;;;;;;1.76;49.54;100852.88;105130;1258;71031;-54
2023/11/19 08:18:25;;;;;;;4.70;1.70;;;;;;;1.79;49.45;100853.96;105803;1258;59793;-54
2023/11/19 08:20:53;;;;;;;5.20;1.80;;;;;;;1.81;49.58;100848.38;106458;1258;59644;-55
2023/11/19 08:23:23;;;;;;;7.80;1.20;;;;;;;1.83;49.75;100845.18;105200;1254;71821;-55
2023/11/19 08:25:51;;;;;;;4.40;1.40;;;;;;;1.85;49.64;100840.25;106145;1259;68811;-55
2023/11/19 08:28:18;;;;;;;3.90;1.30;;;;;;;1.88;49.26;100839.12;105468;1254;72744;-55
2023/11/19 08:30:46;;;;;;;5.70;2.20;;;;;;;1.89;49.25;100833.21;105159;1260;60818;-58
2023/11/19 08:33:14;;;;;;;4.10;1.20;;;;;;;1.86;48.58;100825.89;105602;1257;59996;-54
2023/11/19 08:35:42;;;;;;;4.70;1.80;;;;;;;1.80;48.93;100825.55;106071;1255;71857;-55
2023/11/19 08:38:10;;;;;;;3.10;1.00;;;;;;;1.80;49.17;100822.64;106545;1260;69924;-55
2023/11/19 08:40:38;;;;;;;2.80;0.90;;;;;;;1.81;49.29;100818.10;105213;1254;72446;-54
2023/11/19 08:43:06;;;;;;;4.80;1.40;;;;;;;1.85;49.34;100812.77;105098;1255;60601;-55
2023/11/19 08:45:34;;;;;;;4.90;1.80;;;;;;;1.90;49.13;100815.35;105961;1256;60017;-53
2023/11/19 08:48:02;;;;;;;3.80;1.10;;;;;;;1.95;49.21;100808.77;105072;1254;72972;-55
2023/11/19 08:50:30;;;;;;;5.60;1.60;;;;;;;1.96;49.15;100810.80;104975;1260;69712;-55
2023/11/19 08:52:57;;;;;;;4.30;1.30;;;;;;;1.99;49.08;100807.91;105050;1260;71182;-55
2023/11/19 08:55:26;;;;;;;3.60;1.10;;;;;;;2.00;49.10;100802.88;105889;1257;60280;-55
2023/11/19 08:57:53;;;;;;;4.20;1.80;;;;;;;2.00;49.21;100798.35;106889;1257;59650;-53
2023/11/19 09:00:21;;;;;;;5.30;2.60;;;;;;;2.00;49.37;100791.77;105030;1254;72201;-52
2023/11/19 09:02:49;;;;;;;4.40;1.60;;;;;;;1.98;48.99;100788.74;105170;1254;69542;-54
2023/11/19 09:05:17;;;;;;;5.00;1.50;;;;;;;1.95;49.17;100793.02;105083;1260;71334;-53
2023/11/19 09:07:44;;;;;;;3.90;1.20;;;;;;;1.96;49.50;100798.17;108969;1260;58720;-55
2023/11/19 09:10:12;;;;;;;5.70;1.90;;;;;;;2.00;49.79;100801.13;105730;1257;59984;-57
2023/11/19 09:12:40;;;;;;;6.70;1.90;;;;;;;2.05;49.30;100793.33;105556;1254;73292;-54
2023/11/19 09:15:10;;;;;;;6.90;1.70;;;;;;;2.08;49.40;100792.17;105635;1257;70051;-54
2023/11/19 09:17:38;;;;;;;4.20;1.80;;;;;;;2.11;49.37;100788.95;107524;1254;71493;-55
2023/11/19 09:20:08;;;;;;;5.80;2.40;;;;;;;2.16;49.43;100784.96;106636;1256;59730;-54
2023/11/19 09:22:36;;;;;;;5.10;1.10;;;;;;;2.20;49.10;100783.73;106236;1257;58754;-57
2023/11/19 09:25:05;;;;;;;3.30;1.00;;;;;;;2.25;49.37;100780.64;106092;1257;70871;-54
2023/11/19 09:27:32;;;;;;;6.50;1.70;;;;;;;2.23;49.32;100780.84;106002;1255;69317;-56
2023/11/19 09:30:00;;;;;;;5.60;1.90;;;;;;;2.23;49.52;100775.86;105519;1257;72404;-55
2023/11/19 09:32:27;;;;;;;4.10;2.20;;;;;;;2.21;49.57;100769.69;104948;1260;59734;-55
2023/11/19 09:34:55;;;;;;;6.10;1.50;;;;;;;2.21;49.28;100772.31;106039;1260;59703;-54
2023/11/19 09:37:23;;;;;;;3.90;1.50;;;;;;;2.20;49.46;100770.24;105286;1257;72974;-54
2023/11/19 09:39:50;;;;;;;6.10;1.90;;;;;;;2.21;49.59;100764.84;104990;1261;70496;-53
2023/11/19 09:42:18;;;;;;;5.10;1.60;;;;;;;2.24;49.31;100758.67;105003;1254;72629;-56
2023/11/19 09:44:47;;;;;;;4.40;1.30;;;;;;;2.23;48.63;100763.56;105298;1255;60525;-51
2023/11/19 09:47:14;;;;;;;4.80;2.50;;;;;;;2.20;48.77;100771.27;107844;1258;59212;-54
2023/11/19 09:49:42;;;;;;;4.70;1.80;;;;;;;2.19;49.26;100779.30;104955;1263;71842;-57
2023/11/19 09:52:10;;;;;;;4.20;1.20;;;;;;;2.19;49.53;100782.92;105724;1255;70299;-57
2023/11/19 09:54:37;;;;;;;6.70;2.10;;;;;;;2.22;49.43;100781.60;105483;1257;71446;-53
2023/11/19 09:57:05;;;;;;;5.10;2.00;;;;;;;2.26;49.48;100779.55;105171;1257;59756;-55
2023/11/19 09:59:33;;;;;;;4.30;1.50;;;;;;;2.30;49.12;100775.41;105216;1254;59704;-54
2023/11/19 10:02:01;;;;;;;3.50;1.10;;;;;;;2.30;49.03;100771.79;106585;1254;71932;-54
2023/11/19 10:04:29;;;;;;;5.90;2.40;;;;;;;2.29;49.21;100771.48;106088;1260;69288;-53
2023/11/19 10:06:58;;;;;;;5.80;1.60;;;;;;;2.30;49.19;100767.62;106365;1258;71408;-53
2023/11/19 10:09:25;;;;;;;5.50;1.50;;;;;;;2.28;48.79;100757.48;105264;1257;60664;-56
2023/11/19 10:11:53;;;;;;;5.40;1.80;;;;;;;2.23;48.56;100765.79;105670;1254;60020;-55
2023/11/19 10:14:23;;;;;;;4.70;1.70;;;;;;;2.18;49.15;100769.30;105630;1254;72066;-52
2023/11/19 10:16:51;;;;;;;4.00;1.20;;;;;;;2.17;49.11;100775.58;106808;1259;70487;-53
2023/11/19 10:19:21;;;;;;;4.90;1.70;;;;;;;2.17;49.25;100772.27;105536;1257;72702;-54
2023/11/19 10:21:49;;;;;;;7.50;2.60;;;;;;;2.20;49.54;100769.23;105567;1254;59724;-55
2023/11/19 10:24:17;;;;;;;5.10;2.00;;;;;;;2.21;49.69;100768.30;105736;1257;59989;-54
2023/11/19 10:26:47;;;;;;;4.80;1.80;;;;;;;2.23;49.42;100770.48;105481;1260;72974;-55
2023/11/19 10:29:15;;;;;;;4.80;2.20;;;;;;;2.22;49.14;100765.67;105478;1255;70921;-54
2023/11/19 10:31:55;;;;;;;5.20;1.80;;;;;;;2.21;49.27;100767.28;105235;1254;72872;-54
2023/11/19 10:34:26;;;;;;;6.30;2.00;;;;;;;2.20;49.38;100763.67;105638;1256;59739;-53
2023/11/19 10:36:54;;;;;;;6.60;1.70;;;;;;;2.16;48.96;100755.70;105625;1260;59653;-55
2023/11/19 10:39:23;;;;;;;6.60;2.30;;;;;;;2.10;48.76;100756.48;105352;1254;71222;-55
2023/11/19 10:41:51;;;;;;;4.50;1.30;;;;;;;2.04;49.21;100757.20;105403;1254;69883;-56
2023/11/19 10:44:36;;;;;;;4.50;1.30;;;;;;;2.00;49.31;100760.80;105967;1256;62428;-56
2023/11/19 10:47:05;;;;;;;7.00;2.80;;;;;;;1.98;49.37;100759.15;106498;1254;59634;-56
2023/11/19 10:49:35;;;;;;;5.80;2.00;;;;;;;1.98;49.04;100755.89;105290;1260;59996;-55
2023/11/19 10:52:03;;;;;;;6.40;1.60;;;;;;;1.99;49.30;100753.07;106321;1260;64646;-54
2023/11/19 10:54:31;;;;;;;7.00;2.80;;;;;;;2.00;49.53;100748.85;105334;1254;70120;-54
2023/11/19 10:56:59;;;;;;;5.10;2.20;;;;;;;2.02;49.55;100746.03;105280;1260;71393;-53
2023/11/19 10:59:28;;;;;;;6.70;2.20;;;;;;;2.04;49.85;100743.02;106040;1257;60322;-53
2023/11/19 11:02:03;;;;;;;7.90;1.90;;;;;;;2.07;50.12;100735.61;105229;1257;60466;-53
2023/11/19 11:04:31;;;;;;;4.40;1.60;;;;;;;2.11;49.85;100725.27;105215;1257;65146;-55
2023/11/19 11:06:59;;;;;;;6.50;2.30;;;;;;;2.13;49.57;100718.42;105425;1260;68855;-54
2023/11/19 11:09:27;;;;;;;10.50;3.20;;;;;;;2.13;49.75;100716.37;105227;1257;71471;-54
2023/11/19 11:11:57;;;;;;;7.10;2.80;;;;;;;2.12;49.81;100713.79;105259;1260;60430;-55
2023/11/19 11:14:25;;;;;;;5.60;2.20;;;;;;;2.13;49.68;100717.38;105494;1260;60427;-55
2023/11/19 11:16:53;;;;;;;7.30;2.40;;;;;;;2.14;49.68;100716.68;105975;1254;73975;-55
2023/11/19 11:19:21;;;;;;;9.70;2.50;;;;;;;2.15;49.47;100719.91;105537;1254;70770;-57
2023/11/19 11:21:50;;;;;;;6.60;2.60;;;;;;;2.16;49.43;100721.23;105778;1257;74570;-55
2023/11/19 11:24:30;;;;;;;4.80;2.10;;;;;;;2.19;49.56;100719.23;105676;1260;60506;-54
2023/11/19 11:27:17;;;;;;;4.50;1.60;;;;;;;2.21;49.34;100714.83;105192;1257;60603;-53
2023/11/19 11:29:45;;;;;;;;;;;;;;;2.24;49.58;100709.89;105410;1260;64855;-53
2023/11/19 11:32:31;;;;;;;4.90;1.80;;;;;;;2.28;49.81;100704.84;105444;1260;68587;-53